Time;durP1;ratioP1;P1;durP2;ratioP2;P2;SDS_P1;SDS_P2;PMS_P1;PMS_P2;Temp;Humidity;BMP_temperature;BMP_pressure;BME280_temperature;BME280_humidity;BME280_pressure;Samples;Min_cycle;Max_cycle;Signal;HPM_P1;HPM_P2
2021/01/31 00:01:04;;;;;;;37.83;25.88;;;8.20;1.00;;;;;;5029904;28;20025;-89
2021/01/31 00:03:31;;;;;;;37.78;22.90;;;8.10;1.00;;;;;;5030411;28;20024;-89
2021/01/31 00:06:00;;;;;;;28.35;21.95;;;7.90;1.00;;;;;;5029639;28;20017;-88
2021/01/31 00:08:27;;;;;;;25.90;19.70;;;7.90;1.00;;;;;;5023945;28;20052;-89
2021/01/31 00:10:54;;;;;;;24.90;17.05;;;8.10;1.00;;;;;;5031429;28;20045;-88
2021/01/31 00:13:22;;;;;;;22.02;15.57;;;7.90;1.00;;;;;;5031907;28;20036;-88
2021/01/31 00:15:49;;;;;;;16.88;13.85;;;7.90;1.00;;;;;;5029333;28;20029;-88
2021/01/31 00:18:18;;;;;;;16.98;13.85;;;7.90;1.00;;;;;;5031419;28;20036;-88
2021/01/31 00:20:46;;;;;;;15.43;12.43;;;8.00;1.00;;;;;;5031272;28;20075;-88
2021/01/31 00:23:12;;;;;;;18.00;13.38;;;8.00;1.00;;;;;;5030536;28;20033;-88
2021/01/31 00:25:38;;;;;;;15.23;12.02;;;8.20;1.00;;;;;;5032738;28;20029;-89
2021/01/31 00:28:05;;;;;;;15.40;11.88;;;8.10;1.00;;;;;;5034500;28;20029;-88
2021/01/31 00:30:39;;;;;;;17.52;12.32;;;8.20;1.00;;;;;;5034199;28;20028;-88
2021/01/31 00:33:07;;;;;;;14.23;12.18;;;8.20;1.00;;;;;;5034326;28;20071;-89
2021/01/31 00:35:36;;;;;;;16.05;11.70;;;8.20;1.00;;;;;;5034105;28;20037;-88
2021/01/31 00:38:09;;;;;;;16.90;11.77;;;8.20;1.00;;;;;;5035400;28;20101;-88
2021/01/31 00:40:35;;;;;;;19.30;12.65;;;8.20;1.00;;;;;;5033477;28;20514;-91
2021/01/31 00:43:01;;;;;;;17.92;13.63;;;8.20;1.00;;;;;;5032975;28;20806;-88
2021/01/31 00:45:28;;;;;;;21.00;13.55;;;8.20;1.00;;;;;;5034606;28;20419;-88
2021/01/31 00:47:54;;;;;;;20.23;14.70;;;8.10;1.00;;;;;;5034016;28;20044;-88
2021/01/31 00:50:28;;;;;;;20.08;14.25;;;8.10;1.00;;;;;;5034915;28;20024;-88
2021/01/31 00:52:54;;;;;;;18.55;13.80;;;8.10;1.00;;;;;;5035161;28;20032;-88
2021/01/31 00:55:20;;;;;;;15.98;12.45;;;8.00;1.00;;;;;;5035089;28;20029;-88
2021/01/31 00:57:46;;;;;;;15.02;12.02;;;8.00;1.00;;;;;;5033864;28;20088;-88
2021/01/31 01:00:12;;;;;;;15.45;11.85;;;8.00;1.00;;;;;;5034541;28;20388;-88
2021/01/31 01:02:38;;;;;;;13.38;10.52;;;7.90;1.00;;;;;;5035117;28;20017;-88
2021/01/31 01:05:04;;;;;;;15.15;11.27;;;8.00;1.00;;;;;;5034830;28;20021;-88
2021/01/31 01:07:30;;;;;;;15.13;10.77;;;7.90;1.00;;;;;;5033994;28;20480;-88
2021/01/31 01:09:55;;;;;;;16.58;12.02;;;7.90;1.00;;;;;;5034590;28;20360;-88
2021/01/31 01:12:21;;;;;;;16.20;11.95;;;7.80;1.00;;;;;;5033755;28;20491;-88
2021/01/31 01:14:46;;;;;;;14.70;11.30;;;7.80;1.00;;;;;;5034881;28;20091;-88
2021/01/31 01:17:12;;;;;;;13.90;10.93;;;7.90;1.00;;;;;;5033463;28;20439;-88
2021/01/31 01:19:37;;;;;;;12.82;9.65;;;8.00;1.00;;;;;;5034634;28;20029;-88
2021/01/31 01:22:03;;;;;;;13.52;10.10;;;8.00;1.00;;;;;;5034738;28;20395;-88
2021/01/31 01:24:29;;;;;;;13.05;10.35;;;8.00;1.00;;;;;;5034234;28;20075;-88
2021/01/31 01:26:54;;;;;;;13.75;10.15;;;8.00;1.00;;;;;;5027740;28;20022;-88
2021/01/31 01:29:20;;;;;;;14.38;10.30;;;8.10;1.00;;;;;;5034436;28;20032;-88
2021/01/31 01:31:46;;;;;;;13.95;8.90;;;8.10;1.00;;;;;;5032426;28;20029;-88
2021/01/31 01:34:11;;;;;;;14.05;9.57;;;8.10;1.00;;;;;;5033091;28;20029;-87
2021/01/31 01:36:37;;;;;;;11.57;9.38;;;8.10;1.00;;;;;;5032324;28;20110;-88
2021/01/31 01:39:03;;;;;;;12.60;9.00;;;8.20;1.00;;;;;;5034284;28;20115;-88
2021/01/31 01:41:37;;;;;;;13.10;9.63;;;8.20;1.00;;;;;;5032682;28;20037;-87
2021/01/31 01:44:03;;;;;;;12.88;9.27;;;8.20;1.00;;;;;;5034187;28;20036;-88
2021/01/31 01:46:35;;;;;;;11.95;8.93;;;8.20;1.00;;;;;;5033861;28;20030;-88
2021/01/31 01:49:09;;;;;;;12.73;9.80;;;8.20;1.00;;;;;;5032325;28;20021;-88
2021/01/31 01:51:43;;;;;;;10.63;8.75;;;8.30;1.00;;;;;;5032681;28;20481;-88
2021/01/31 01:54:14;;;;;;;12.40;9.50;;;8.20;1.00;;;;;;5033566;28;20446;-88
2021/01/31 01:56:45;;;;;;;11.73;8.98;;;8.30;1.00;;;;;;5031228;28;20021;-87
2021/01/31 01:59:11;;;;;;;11.68;8.75;;;8.30;1.00;;;;;;5032682;28;20033;-88
2021/01/31 02:01:46;;;;;;;13.25;9.40;;;8.30;1.00;;;;;;5032426;28;20035;-87
2021/01/31 02:04:12;;;;;;;13.07;9.63;;;8.20;1.00;;;;;;5032176;28;20025;-88
2021/01/31 02:06:38;;;;;;;12.70;9.32;;;8.20;1.00;;;;;;5031807;28;20053;-87
2021/01/31 02:09:06;;;;;;;13.20;9.75;;;8.20;1.00;;;;;;5031245;28;20499;-87
2021/01/31 02:11:31;;;;;;;12.73;9.65;;;8.20;1.00;;;;;;5030847;28;20414;-88
2021/01/31 02:14:06;;;;;;;15.40;9.48;;;8.20;1.00;;;;;;5032375;28;20029;-88
2021/01/31 02:16:56;;;;;;;13.43;9.88;;;8.20;1.00;;;;;;5033418;28;20510;-88
2021/01/31 02:19:31;;;;;;;14.30;9.68;;;8.20;1.00;;;;;;5032646;28;20483;-87
2021/01/31 02:22:28;;;;;;;14.80;10.70;;;8.20;1.00;;;;;;5031934;28;20056;-88
2021/01/31 02:25:20;;;;;;;16.75;10.90;;;8.10;1.00;;;;;;4985824;28;20042;-88
2021/01/31 02:27:45;;;;;;;15.63;10.60;;;8.10;1.00;;;;;;4983490;28;20104;-88
2021/01/31 02:30:26;;;;;;;13.00;10.00;;;8.20;1.00;;;;;;4985290;28;20499;-88
2021/01/31 02:33:18;;;;;;;13.57;10.07;;;8.20;1.00;;;;;;4991297;28;20022;-87
2021/01/31 02:35:47;;;;;;;12.13;9.52;;;8.10;1.00;;;;;;4977797;28;20050;-88
2021/01/31 02:38:34;;;;;;;13.68;10.27;;;8.10;1.00;;;;;;4978359;28;20522;-88
2021/01/31 02:41:11;;;;;;;14.40;10.73;;;8.10;1.00;;;;;;4976448;28;20030;-87
2021/01/31 02:43:48;;;;;;;14.25;10.50;;;8.10;1.00;;;;;;4978522;28;20125;-88
2021/01/31 02:46:25;;;;;;;12.95;10.43;;;8.00;1.00;;;;;;4956308;28;20026;-88
2021/01/31 02:48:59;;;;;;;13.02;10.77;;;7.90;1.00;;;;;;4992610;28;20022;-87
2021/01/31 02:51:37;;;;;;;15.13;10.73;;;7.90;1.00;;;;;;4986986;28;20114;-88
2021/01/31 02:54:20;;;;;;;14.20;10.35;;;7.90;1.00;;;;;;4972411;28;20031;-87
2021/01/31 02:56:52;;;;;;;13.20;10.90;;;7.80;1.00;;;;;;4983767;28;20026;-87
2021/01/31 02:59:43;;;;;;;15.90;11.10;;;7.80;1.00;;;;;;4975473;28;20039;-88
2021/01/31 03:02:16;;;;;;;15.65;11.13;;;7.70;1.00;;;;;;5009916;28;20040;-88
2021/01/31 03:05:13;;;;;;;14.77;10.20;;;8.20;1.00;;;;;;5031196;28;20394;-88
2021/01/31 03:08:06;;;;;;;12.55;10.35;;;7.90;1.00;;;;;;5031930;28;20045;-88
2021/01/31 03:10:42;;;;;;;13.48;10.15;;;7.80;1.00;;;;;;5024484;28;20432;-88
2021/01/31 03:13:13;;;;;;;14.05;10.20;;;7.80;1.00;;;;;;5030902;28;20026;-88
2021/01/31 03:15:47;;;;;;;14.75;10.43;;;8.10;1.00;;;;;;5032613;28;20017;-88
2021/01/31 03:18:26;;;;;;;13.77;9.95;;;7.80;1.00;;;;;;5030996;28;20056;-88
2021/01/31 03:21:03;;;;;;;14.05;9.73;;;7.80;1.00;;;;;;5030805;28;20028;-88
2021/01/31 03:23:36;;;;;;;13.23;10.52;;;7.90;1.00;;;;;;5032255;28;20124;-88
2021/01/31 03:26:10;;;;;;;16.05;10.93;;;8.10;1.00;;;;;;5030016;28;20494;-88
2021/01/31 03:28:36;;;;;;;13.05;9.80;;;8.20;1.00;;;;;;5032010;28;20060;-88
2021/01/31 03:31:02;;;;;;;14.73;9.90;;;8.00;1.00;;;;;;5031736;28;20053;-88
2021/01/31 03:33:40;;;;;;;14.82;10.13;;;7.90;1.00;;;;;;5030766;28;20096;-88
2021/01/31 03:36:06;;;;;;;11.68;9.43;;;8.00;1.00;;;;;;5030931;28;20602;-88
2021/01/31 03:38:41;;;;;;;11.65;9.43;;;7.90;1.00;;;;;;5030866;28;20148;-88
2021/01/31 03:41:11;;;;;;;11.65;9.05;;;7.90;1.00;;;;;;5029751;28;20027;-88
2021/01/31 03:43:36;;;;;;;12.82;9.18;;;7.90;1.00;;;;;;5032155;28;20072;-88
2021/01/31 03:46:14;;;;;;;11.30;8.30;;;8.00;1.00;;;;;;5031091;28;20091;-88
2021/01/31 03:48:53;;;;;;;10.65;8.02;;;8.00;1.00;;;;;;5030476;28;20108;-88
2021/01/31 03:51:19;;;;;;;13.90;8.00;;;8.00;1.00;;;;;;5030855;28;20026;-88
2021/01/31 03:53:46;;;;;;;12.77;8.50;;;8.20;1.00;;;;;;5031061;28;20029;-87
2021/01/31 03:56:15;;;;;;;12.75;9.32;;;8.00;1.00;;;;;;5029353;28;20022;-88
2021/01/31 03:58:45;;;;;;;12.32;9.27;;;8.00;1.00;;;;;;5031952;28;20030;-88
2021/01/31 04:01:12;;;;;;;13.25;9.55;;;8.00;1.00;;;;;;5035971;28;20014;-87
2021/01/31 04:03:47;;;;;;;13.57;9.85;;;8.30;1.00;;;;;;5036022;28;20076;-88
2021/01/31 04:06:22;;;;;;;13.35;10.02;;;8.10;1.00;;;;;;5034086;28;20038;-87
2021/01/31 04:08:54;;;;;;;13.73;10.50;;;8.00;1.00;;;;;;5033509;28;20024;-88
2021/01/31 04:11:41;;;;;;;13.77;9.45;;;8.00;1.00;;;;;;5032274;28;20022;-88
2021/01/31 04:14:22;;;;;;;13.27;10.23;;;8.00;1.00;;;;;;5035174;28;20519;-88
2021/01/31 04:16:50;;;;;;;15.18;10.52;;;8.10;1.00;;;;;;5034440;28;20498;-87
2021/01/31 04:19:17;;;;;;;14.18;10.45;;;7.90;1.00;;;;;;5035852;28;20033;-88
2021/01/31 04:21:43;;;;;;;15.07;10.15;;;8.30;1.00;;;;;;5034725;28;20026;-88
2021/01/31 04:24:08;;;;;;;14.43;11.32;;;8.00;1.00;;;;;;5032294;28;20461;-88
2021/01/31 04:26:35;;;;;;;14.80;11.20;;;8.00;1.00;;;;;;5035788;28;20018;-88
2021/01/31 04:29:02;;;;;;;18.23;11.27;;;7.90;1.00;;;;;;5035704;28;20032;-88
2021/01/31 04:31:29;;;;;;;16.42;11.93;;;8.20;1.00;;;;;;5035108;28;20022;-88
2021/01/31 04:33:55;;;;;;;15.77;11.55;;;7.90;1.00;;;;;;5035561;28;20117;-88
2021/01/31 04:36:22;;;;;;;15.70;12.52;;;8.40;1.00;;;;;;5035590;28;20029;-87
2021/01/31 04:38:48;;;;;;;15.23;11.38;;;8.10;1.00;;;;;;5034417;28;20110;-88
2021/01/31 04:41:14;;;;;;;16.63;11.75;;;8.30;1.00;;;;;;5035533;28;20463;-87
2021/01/31 04:43:41;;;;;;;17.20;12.02;;;8.20;1.00;;;;;;5035446;28;20033;-88
2021/01/31 04:46:11;;;;;;;17.95;11.93;;;7.90;1.00;;;;;;5033218;28;20108;-87
2021/01/31 04:49:02;;;;;;;17.55;12.20;;;7.90;1.00;;;;;;5035283;28;20030;-88
2021/01/31 04:51:34;;;;;;;17.67;12.13;;;7.90;1.00;;;;;;5033938;28;20487;-88
2021/01/31 04:54:07;;;;;;;17.77;12.23;;;7.90;1.00;;;;;;5034152;28;20033;-88
2021/01/31 04:56:56;;;;;;;17.88;12.90;;;7.90;1.00;;;;;;5034980;28;20030;-88
2021/01/31 04:59:25;;;;;;;17.42;12.25;;;8.00;1.00;;;;;;5033646;28;20025;-88
2021/01/31 05:01:56;;;;;;;18.58;12.70;;;8.30;1.00;;;;;;5033505;28;20029;-87
2021/01/31 05:04:24;;;;;;;20.02;12.95;;;8.00;1.00;;;;;;5033015;28;20030;-87
2021/01/31 05:06:53;;;;;;;18.90;12.35;;;7.90;1.00;;;;;;5034544;28;20519;-87
2021/01/31 05:09:23;;;;;;;17.55;12.52;;;8.10;1.00;;;;;;5031846;28;20080;-87
2021/01/31 05:12:16;;;;;;;19.25;12.43;;;8.00;1.00;;;;;;5033912;28;20025;-87
2021/01/31 05:14:48;;;;;;;19.02;12.93;;;8.00;1.00;;;;;;5034769;28;20494;-87
2021/01/31 05:17:17;;;;;;;18.42;12.45;;;8.00;1.00;;;;;;5034586;28;20104;-88
2021/01/31 05:19:43;;;;;;;19.60;13.38;;;8.10;1.00;;;;;;5034554;28;20100;-88
2021/01/31 05:22:17;;;;;;;18.65;12.70;;;8.30;1.00;;;;;;5032701;28;20109;-88
2021/01/31 05:24:42;;;;;;;19.17;13.05;;;8.10;1.00;;;;;;5031586;28;20565;-88
2021/01/31 05:27:08;;;;;;;19.27;13.00;;;8.10;1.00;;;;;;5032506;28;20025;-88
2021/01/31 05:29:37;;;;;;;19.20;13.52;;;8.00;1.00;;;;;;5032512;28;20014;-87
2021/01/31 05:32:18;;;;;;;19.98;12.98;;;8.10;1.00;;;;;;5032699;28;20013;-88
2021/01/31 05:34:51;;;;;;;17.88;12.05;;;8.00;1.00;;;;;;5034542;28;20112;-87
2021/01/31 05:37:39;;;;;;;20.33;12.77;;;8.00;1.00;;;;;;5033826;28;20561;-88
2021/01/31 05:40:09;;;;;;;17.85;12.20;;;8.10;1.00;;;;;;5048505;28;20030;-87
2021/01/31 05:42:45;;;;;;;17.55;12.50;;;8.00;1.00;;;;;;5032672;28;20033;-87
2021/01/31 05:45:20;;;;;;;17.52;12.57;;;8.10;1.00;;;;;;5033930;28;20554;-87
2021/01/31 05:47:48;;;;;;;17.92;13.13;;;8.40;1.00;;;;;;5032502;28;20025;-88
2021/01/31 05:50:29;;;;;;;18.60;12.60;;;8.10;1.00;;;;;;5032620;28;20029;-88
2021/01/31 05:52:55;;;;;;;16.42;11.02;;;8.00;1.00;;;;;;5030998;28;20441;-88
2021/01/31 05:55:31;;;;;;;14.65;10.80;;;8.10;1.00;;;;;;5032450;28;20033;-88
2021/01/31 05:58:20;;;;;;;15.43;10.90;;;8.10;1.00;;;;;;5029623;28;20037;-88
2021/01/31 06:01:02;;;;;;;17.40;11.05;;;8.00;1.00;;;;;;5014436;28;20061;-87
2021/01/31 06:03:27;;;;;;;15.20;10.75;;;8.10;1.00;;;;;;5029473;28;20048;-87
2021/01/31 06:06:19;;;;;;;16.25;10.48;;;8.00;1.00;;;;;;5031598;28;20025;-88
2021/01/31 06:08:47;;;;;;;15.10;10.40;;;8.00;1.00;;;;;;5030773;28;20380;-87
2021/01/31 06:11:33;;;;;;;16.60;11.20;;;8.00;1.00;;;;;;5032643;28;20037;-88
2021/01/31 06:14:27;;;;;;;13.63;10.43;;;8.20;1.00;;;;;;5033327;28;20112;-87
2021/01/31 06:17:06;;;;;;;14.18;10.23;;;8.20;1.00;;;;;;5032589;28;20100;-88
2021/01/31 06:19:38;;;;;;;15.43;10.60;;;8.00;1.00;;;;;;5031675;28;20029;-88
2021/01/31 06:22:07;;;;;;;14.90;10.07;;;8.10;1.00;;;;;;5030919;28;20565;-87
2021/01/31 06:24:49;;;;;;;13.45;9.30;;;8.10;1.00;;;;;;5031548;28;20120;-88
2021/01/31 06:27:29;;;;;;;15.23;9.30;;;8.10;1.00;;;;;;5032191;28;20030;-88
2021/01/31 06:30:03;;;;;;;12.20;9.27;;;8.10;1.00;;;;;;5033356;28;20029;-88
2021/01/31 06:32:31;;;;;;;12.32;9.32;;;8.10;1.00;;;;;;5031606;28;20091;-88
2021/01/31 06:35:00;;;;;;;9.90;8.52;;;8.10;1.00;;;;;;5027393;28;20561;-88
2021/01/31 06:38:03;;;;;;;12.68;9.32;;;8.20;1.00;;;;;;5031054;28;20038;-87
2021/01/31 06:40:36;;;;;;;13.63;9.93;;;8.10;1.00;;;;;;5031969;28;20029;-88
2021/01/31 06:43:16;;;;;;;10.48;8.70;;;8.10;1.00;;;;;;5032822;28;20104;-87
2021/01/31 06:46:13;;;;;;;12.32;9.55;;;8.10;1.00;;;;;;5032545;28;20034;-87
2021/01/31 06:48:59;;;;;;;12.43;9.68;;;8.10;1.00;;;;;;4939380;29;20058;-87
2021/01/31 06:52:05;;;;;;;12.80;9.50;;;8.10;1.00;;;;;;4951105;29;20040;-87
2021/01/31 06:54:50;;;;;;;13.23;9.43;;;8.10;1.00;;;;;;4929085;29;20040;-87
2021/01/31 06:57:34;;;;;;;13.05;9.10;;;8.10;1.00;;;;;;4933511;29;20418;-87
2021/01/31 07:00:31;;;;;;;12.55;9.57;;;8.10;1.00;;;;;;4942635;29;20043;-87
2021/01/31 07:03:16;;;;;;;14.48;9.02;;;8.10;1.00;;;;;;4951526;29;20087;-87
2021/01/31 07:05:59;;;;;;;12.75;9.65;;;8.10;1.00;;;;;;4939800;28;20035;-87
2021/01/31 07:08:46;;;;;;;13.77;9.15;;;8.10;1.00;;;;;;4956385;28;20515;-88
2021/01/31 07:11:41;;;;;;;13.57;9.23;;;8.10;1.00;;;;;;4957633;28;20026;-88
2021/01/31 07:14:19;;;;;;;12.57;9.25;;;8.20;1.00;;;;;;4961298;28;20062;-87
2021/01/31 07:17:04;;;;;;;13.90;9.48;;;8.20;1.00;;;;;;4940341;28;20023;-88
2021/01/31 07:19:40;;;;;;;11.90;9.57;;;8.10;1.00;;;;;;4962242;28;20092;-87
2021/01/31 07:22:13;;;;;;;13.55;9.65;;;8.20;1.00;;;;;;4939770;28;20027;-87
2021/01/31 07:24:44;;;;;;;12.10;8.93;;;8.20;1.00;;;;;;4968681;28;20114;-86
2021/01/31 07:27:38;;;;;;;13.48;9.38;;;8.20;1.00;;;;;;5037489;28;20542;-86
2021/01/31 07:30:28;;;;;;;12.07;8.57;;;8.30;1.00;;;;;;5034768;28;20075;-86
2021/01/31 07:33:07;;;;;;;12.82;9.20;;;8.30;1.00;;;;;;5038107;28;20096;-88
2021/01/31 07:35:58;;;;;;;11.32;9.43;;;8.40;1.00;;;;;;5036058;28;20126;-87
2021/01/31 07:38:32;;;;;;;13.30;9.05;;;8.40;1.00;;;;;;4959314;28;20043;-87
2021/01/31 07:40:59;;;;;;;12.45;9.30;;;8.50;1.00;;;;;;4943991;28;20050;-87
2021/01/31 07:43:28;;;;;;;13.93;9.77;;;8.50;1.00;;;;;;4958950;28;20045;-89
2021/01/31 07:46:02;;;;;;;11.88;9.18;;;8.60;1.00;;;;;;4968305;28;20020;-87
2021/01/31 07:48:37;;;;;;;12.20;8.75;;;8.60;1.00;;;;;;4936937;29;20556;-88
2021/01/31 07:51:05;;;;;;;11.23;9.07;;;8.70;1.00;;;;;;4964994;28;20046;-88
2021/01/31 07:53:40;;;;;;;13.60;9.40;;;8.80;1.00;;;;;;4951412;29;20059;-88
2021/01/31 07:56:29;;;;;;;14.90;9.02;;;8.80;1.00;;;;;;4974798;28;20046;-89
2021/01/31 07:59:09;;;;;;;11.95;9.00;;;8.90;1.00;;;;;;4948319;29;20076;-87
2021/01/31 08:01:40;;;;;;;12.60;9.05;;;9.00;1.00;;;;;;4960545;28;20026;-88
2021/01/31 08:04:35;;;;;;;11.65;8.90;;;9.00;1.00;;;;;;4970516;28;20027;-88
2021/01/31 08:07:04;;;;;;;12.05;9.15;;;9.10;1.00;;;;;;4875092;29;20045;-88
2021/01/31 08:09:30;;;;;;;13.32;9.65;;;9.20;1.00;;;;;;4883703;29;20068;-87
2021/01/31 08:12:01;;;;;;;12.43;8.98;;;9.20;1.00;;;;;;4894784;29;20116;-82
2021/01/31 08:15:04;;;;;;;13.07;9.32;;;9.30;1.00;;;;;;4882396;28;20025;-87
2021/01/31 08:17:46;;;;;;;11.93;9.70;;;9.40;1.00;;;;;;4970493;28;20436;-87
2021/01/31 08:20:23;;;;;;;13.15;9.82;;;9.40;1.00;;;;;;4976317;28;20027;-85
2021/01/31 08:22:49;;;;;;;13.73;9.43;;;9.50;1.00;;;;;;4976173;28;20102;-89
2021/01/31 08:25:15;;;;;;;12.07;9.55;;;9.50;1.00;;;;;;4971819;28;20039;-86
2021/01/31 08:27:40;;;;;;;11.45;9.00;;;9.60;1.00;;;;;;4951858;29;20114;-92
2021/01/31 08:30:32;;;;;;;12.50;9.02;;;9.70;1.00;;;;;;4979322;28;20046;-86
2021/01/31 08:32:57;;;;;;;12.55;8.75;;;9.80;1.00;;;;;;4966586;28;20023;-87
2021/01/31 08:35:36;;;;;;;11.88;8.48;;;9.90;1.00;;;;;;4972837;28;20035;-90
2021/01/31 08:38:31;;;;;;;11.48;8.52;;;10.00;1.00;;;;;;4976342;28;20049;-89
2021/01/31 08:41:03;;;;;;;12.25;8.88;;;10.00;1.00;;;;;;4959582;28;20501;-89
2021/01/31 08:43:48;;;;;;;12.00;8.95;;;10.00;1.00;;;;;;4974805;28;20125;-87
2021/01/31 08:46:15;;;;;;;11.82;8.48;;;10.20;1.00;;;;;;5021306;28;20092;-88
2021/01/31 08:49:01;;;;;;;12.10;8.75;;;10.40;1.00;;;;;;5036244;28;20083;-86
2021/01/31 08:51:33;;;;;;;9.80;8.20;;;10.50;1.00;;;;;;5033600;28;20501;-89
2021/01/31 08:54:19;;;;;;;12.40;8.40;;;10.60;1.00;;;;;;5034232;28;20029;-88
2021/01/31 08:56:53;;;;;;;10.05;7.97;;;10.60;1.00;;;;;;5034051;28;20021;-89
2021/01/31 08:59:37;;;;;;;10.05;7.90;;;10.60;1.00;;;;;;5033938;28;20410;-87
2021/01/31 09:02:19;;;;;;;11.38;8.80;;;10.60;1.00;;;;;;5031890;28;20040;-87
2021/01/31 09:04:46;;;;;;;10.13;8.07;;;10.50;1.00;;;;;;5032105;28;20025;-86
2021/01/31 09:07:32;;;;;;;13.75;10.45;;;10.40;1.00;;;;;;5031507;28;20124;-86
2021/01/31 09:10:05;;;;;;;13.30;9.38;;;10.50;1.00;;;;;;5034713;28;20032;-87
2021/01/31 09:12:31;;;;;;;13.35;10.20;;;10.70;1.00;;;;;;5034106;28;20032;-87
2021/01/31 09:15:11;;;;;;;17.33;11.90;;;10.60;1.00;;;;;;5034685;28;20025;-86
2021/01/31 09:17:36;;;;;;;15.13;11.98;;;10.60;1.00;;;;;;5033165;28;20032;-86
2021/01/31 09:20:17;;;;;;;14.50;11.38;;;10.50;1.00;;;;;;5032234;28;20022;-87
2021/01/31 09:22:49;;;;;;;14.98;11.05;;;10.60;1.00;;;;;;5013588;28;20105;-87
2021/01/31 09:25:19;;;;;;;14.88;11.57;;;11.00;1.00;;;;;;5028823;28;20025;-86
2021/01/31 09:28:17;;;;;;;13.52;9.65;;;11.20;1.00;;;;;;5034456;28;20092;-86
2021/01/31 09:30:44;;;;;;;13.35;10.73;;;11.10;1.00;;;;;;5034923;28;20026;-87
2021/01/31 09:33:19;;;;;;;14.57;10.07;;;11.10;1.00;;;;;;5034174;28;20479;-86
2021/01/31 09:35:44;;;;;;;13.57;9.75;;;11.20;1.00;;;;;;5034159;28;20033;-86
2021/01/31 09:38:12;;;;;;;13.88;9.85;;;11.20;1.00;;;;;;5033730;28;20040;-87
2021/01/31 09:40:40;;;;;;;13.35;9.70;;;11.30;1.00;;;;;;5033794;28;20025;-86
2021/01/31 09:43:13;;;;;;;12.05;9.20;;;11.30;1.00;;;;;;5028219;28;20053;-87
2021/01/31 09:45:42;;;;;;;12.57;8.65;;;11.60;1.00;;;;;;5032477;28;20034;-86
2021/01/31 09:48:13;;;;;;;12.48;8.95;;;12.00;1.00;;;;;;5034756;28;20072;-86
2021/01/31 09:50:39;;;;;;;8.95;7.40;;;12.00;1.00;;;;;;5029155;28;20026;-86
2021/01/31 09:53:05;;;;;;;9.60;7.90;;;12.20;1.00;;;;;;5033206;28;20483;-87
2021/01/31 09:55:42;;;;;;;9.30;7.75;;;12.90;1.00;;;;;;5032819;28;20053;-87
2021/01/31 09:58:31;;;;;;;10.20;7.35;;;13.50;1.00;;;;;;5034327;28;20093;-87
2021/01/31 10:01:21;;;;;;;16.17;8.55;;;14.00;1.00;;;;;;5033406;28;20028;-87
2021/01/31 10:04:05;;;;;;;9.35;6.57;;;14.00;1.00;;;;;;5033905;28;20037;-87
2021/01/31 10:06:42;;;;;;;8.15;6.60;;;14.10;1.00;;;;;;5031054;28;20041;-87
2021/01/31 10:09:08;;;;;;;8.23;5.80;;;13.80;1.00;;;;;;5033834;28;20112;-87
2021/01/31 10:11:38;;;;;;;8.35;6.32;;;13.70;1.00;;;;;;5033777;28;20107;-87
2021/01/31 10:14:06;;;;;;;9.73;6.63;;;13.70;1.00;;;;;;5032451;28;20030;-86
2021/01/31 10:16:35;;;;;;;7.53;5.80;;;14.10;1.00;;;;;;5032411;28;20029;-87
2021/01/31 10:19:22;;;;;;;8.38;6.38;;;13.90;1.00;;;;;;5033539;28;20025;-87
2021/01/31 10:21:52;;;;;;;7.40;6.03;;;14.10;1.00;;;;;;5028831;28;20026;-87
2021/01/31 10:24:21;;;;;;;7.47;5.90;;;14.70;99.90;;;;;;5033888;28;20791;-87
2021/01/31 10:26:47;;;;;;;8.32;6.13;;;15.20;99.90;;;;;;5033417;28;20032;-87
2021/01/31 10:29:32;;;;;;;29.58;8.23;;;15.00;99.90;;;;;;5033480;28;20152;-87
2021/01/31 10:32:20;;;;;;;7.00;6.30;;;15.10;99.90;;;;;;5033117;28;20021;-87
2021/01/31 10:34:45;;;;;;;9.20;6.68;;;15.80;99.90;;;;;;5033695;28;20088;-87
2021/01/31 10:37:20;;;;;;;9.63;7.22;;;16.10;99.90;;;;;;5033021;28;20026;-87
2021/01/31 10:39:47;;;;;;;8.73;7.13;;;16.00;99.90;;;;;;5033469;28;20033;-87
2021/01/31 10:42:14;;;;;;;8.68;6.75;;;16.80;99.90;;;;;;5032124;28;20546;-87
2021/01/31 10:44:39;;;;;;;9.98;6.57;;;17.50;99.90;;;;;;5030835;28;20398;-87
2021/01/31 10:47:05;;;;;;;8.70;6.00;;;19.20;99.90;;;;;;5032387;28;20029;-87
2021/01/31 10:49:30;;;;;;;6.75;5.47;;;22.30;99.90;;;;;;5032577;28;20032;-87
2021/01/31 10:51:56;;;;;;;6.38;5.70;;;21.60;99.90;;;;;;5031986;28;20029;-87
2021/01/31 10:54:23;;;;;;;8.13;5.47;;;23.00;99.90;;;;;;5033390;28;20056;-87
2021/01/31 10:56:48;;;;;;;6.70;5.90;;;22.10;99.90;;;;;;5033497;28;20018;-87
2021/01/31 10:59:14;;;;;;;5.93;5.07;;;23.80;99.90;;;;;;5032808;28;20372;-87
2021/01/31 11:01:48;;;;;;;5.60;4.85;;;29.20;99.90;;;;;;5033177;28;20495;-87
2021/01/31 11:04:15;;;;;;;5.90;4.28;;;30.40;99.90;;;;;;5033280;28;20041;-87
2021/01/31 11:06:43;;;;;;;6.82;4.80;;;30.20;99.90;;;;;;5031746;28;20471;-87
2021/01/31 11:09:10;;;;;;;4.40;4.00;;;30.90;99.90;;;;;;5032696;28;20100;-87
2021/01/31 11:11:37;;;;;;;4.45;4.05;;;28.90;99.90;;;;;;5032812;28;20052;-87
2021/01/31 11:14:03;;;;;;;4.72;4.22;;;29.50;99.90;;;;;;5032800;28;20041;-88
2021/01/31 11:16:28;;;;;;;5.22;4.00;;;29.90;99.90;;;;;;5032956;28;20021;-87
2021/01/31 11:18:54;;;;;;;4.47;3.95;;;29.10;99.90;;;;;;5032877;28;20025;-87
2021/01/31 11:21:26;;;;;;;5.55;4.75;;;27.70;99.90;;;;;;5032596;28;20029;-86
2021/01/31 11:23:54;;;;;;;3.75;3.40;;;27.90;99.90;;;;;;5031827;28;20025;-85
2021/01/31 11:26:20;;;;;;;4.80;3.38;;;27.00;99.90;;;;;;5031839;28;20026;-85
2021/01/31 11:28:46;;;;;;;3.17;2.70;;;27.30;99.90;;;;;;5032836;28;20487;-85
2021/01/31 11:31:11;;;;;;;2.88;1.98;;;29.40;99.90;;;;;;5033160;28;20028;-86
2021/01/31 11:33:38;;;;;;;3.38;1.85;;;29.50;99.90;;;;;;5032918;28;20029;-86
2021/01/31 11:36:04;;;;;;;2.50;1.83;;;29.10;99.90;;;;;;5033217;28;20026;-86
2021/01/31 11:38:30;;;;;;;2.60;1.65;;;28.40;99.90;;;;;;5031637;28;20116;-85
2021/01/31 11:40:56;;;;;;;2.55;1.58;;;29.30;99.90;;;;;;5031331;28;20124;-85
2021/01/31 11:43:22;;;;;;;1.73;1.20;;;30.30;99.90;;;;;;5032184;28;20037;-85
2021/01/31 11:45:48;;;;;;;2.50;1.45;;;29.60;99.90;;;;;;5032681;28;20036;-85
2021/01/31 11:48:14;;;;;;;1.88;1.10;;;29.20;99.90;;;;;;5031502;28;20021;-85
2021/01/31 11:50:39;;;;;;;2.95;0.90;;;28.70;99.90;;;;;;5032765;28;20035;-86
2021/01/31 11:53:05;;;;;;;2.22;1.38;;;28.90;99.90;;;;;;5032883;28;20026;-85
2021/01/31 11:55:31;;;;;;;1.63;1.40;;;29.50;99.90;;;;;;5030747;28;20033;-85
2021/01/31 11:57:56;;;;;;;2.25;1.63;;;29.30;99.90;;;;;;5031403;28;20442;-87
2021/01/31 12:00:22;;;;;;;1.40;1.08;;;30.00;99.90;;;;;;5032036;28;20179;-87
2021/01/31 12:02:48;;;;;;;1.70;0.93;;;30.80;99.90;;;;;;5032529;28;20416;-86
2021/01/31 12:05:16;;;;;;;1.10;0.88;;;30.50;99.90;;;;;;5032465;28;20026;-87
2021/01/31 12:07:42;;;;;;;1.60;0.80;;;32.10;99.90;;;;;;5031877;28;20042;-86
2021/01/31 12:10:10;;;;;;;2.20;0.80;;;30.80;99.90;;;;;;5032201;28;20040;-86
2021/01/31 12:12:36;;;;;;;0.85;0.70;;;30.40;99.90;;;;;;5032526;28;20495;-84
2021/01/31 12:15:04;;;;;;;0.77;0.50;;;30.90;99.90;;;;;;5030919;28;20030;-84
2021/01/31 12:17:30;;;;;;;0.93;0.70;;;32.00;99.90;;;;;;5032199;28;20044;-84
2021/01/31 12:19:55;;;;;;;0.98;0.50;;;32.40;99.90;;;;;;5034099;28;20029;-87
2021/01/31 12:22:22;;;;;;;0.60;0.50;;;32.80;99.90;;;;;;5035669;28;20100;-85
2021/01/31 12:24:50;;;;;;;1.38;0.68;;;32.80;99.90;;;;;;5036073;28;20053;-85
2021/01/31 12:27:44;;;;;;;1.52;0.82;;;33.20;99.90;;;;;;5034732;28;20022;-86
2021/01/31 12:30:13;;;;;;;1.50;0.90;;;30.20;99.90;;;;;;5035300;28;20052;-89
2021/01/31 12:32:38;;;;;;;2.17;0.90;;;29.80;99.90;;;;;;5034252;28;20013;-86
2021/01/31 12:35:04;;;;;;;1.45;0.55;;;28.20;99.90;;;;;;5036018;28;20041;-86
2021/01/31 12:37:30;;;;;;;1.35;0.70;;;25.50;99.90;;;;;;5035630;28;20112;-86
2021/01/31 12:39:56;;;;;;;0.82;0.70;;;24.10;99.90;;;;;;5035840;28;20032;-86
2021/01/31 12:42:23;;;;;;;2.63;0.90;;;24.80;99.90;;;;;;5035091;28;20033;-85
2021/01/31 12:44:49;;;;;;;1.40;0.80;;;23.40;99.90;;;;;;5033960;28;20075;-85
2021/01/31 12:47:15;;;;;;;2.53;0.80;;;26.80;99.90;;;;;;5018240;28;20022;-86
2021/01/31 12:49:40;;;;;;;0.90;0.77;;;27.70;99.90;;;;;;5035633;28;20502;-85
2021/01/31 12:52:06;;;;;;;1.10;1.00;;;28.70;99.90;;;;;;5035259;28;20064;-86
2021/01/31 12:54:32;;;;;;;1.50;1.00;;;28.60;99.90;;;;;;5035515;28;20051;-84
2021/01/31 12:56:58;;;;;;;1.58;0.60;;;28.10;99.90;;;;;;5034453;28;20033;-88
2021/01/31 12:59:24;;;;;;;0.95;0.50;;;28.80;99.90;;;;;;5035838;28;20095;-88
2021/01/31 13:01:50;;;;;;;1.88;0.80;;;29.50;99.90;;;;;;5051999;28;20490;-87
2021/01/31 13:04:15;;;;;;;1.52;0.80;;;30.30;99.90;;;;;;5041852;28;20036;-89
2021/01/31 13:06:41;;;;;;;1.33;1.00;;;30.60;99.90;;;;;;5034743;28;20418;-89
2021/01/31 13:09:07;;;;;;;0.90;0.75;;;28.30;99.90;;;;;;5034142;28;20020;-89
2021/01/31 13:11:32;;;;;;;1.83;0.82;;;26.80;99.90;;;;;;5034000;28;20036;-87
2021/01/31 13:13:58;;;;;;;2.58;0.90;;;26.60;99.90;;;;;;5034462;28;20021;-85
2021/01/31 13:16:24;;;;;;;2.08;0.90;;;28.80;99.90;;;;;;5034509;28;20041;-87
2021/01/31 13:18:50;;;;;;;1.95;1.10;;;27.60;99.90;;;;;;5034849;28;20049;-86